sensor_id;sensor_type;location;lat;lon;timestamp;P1;durP1;ratioP1;P2;durP2;ratioP2
53775;SDS011;44276;49.534;6.378;2024-02-14T00:01:23;7.18;;;1.67;;
53775;SDS011;44276;49.534;6.378;2024-02-14T00:03:51;2.58;;;1.33;;
53775;SDS011;44276;49.534;6.378;2024-02-14T00:06:21;4.40;;;1.45;;
53775;SDS011;44276;49.534;6.378;2024-02-14T00:08:50;9.15;;;1.50;;
53775;SDS011;44276;49.534;6.378;2024-02-14T00:11:19;3.47;;;1.92;;
53775;SDS011;44276;49.534;6.378;2024-02-14T00:13:47;3.80;;;1.95;;
53775;SDS011;44276;49.534;6.378;2024-02-14T00:16:16;2.30;;;1.27;;
53775;SDS011;44276;49.534;6.378;2024-02-14T00:18:44;2.20;;;1.52;;
53775;SDS011;44276;49.534;6.378;2024-02-14T00:21:13;7.32;;;2.03;;
53775;SDS011;44276;49.534;6.378;2024-02-14T00:23:42;5.72;;;1.80;;
53775;SDS011;44276;49.534;6.378;2024-02-14T00:26:10;3.50;;;1.63;;
53775;SDS011;44276;49.534;6.378;2024-02-14T00:28:39;3.25;;;1.23;;
53775;SDS011;44276;49.534;6.378;2024-02-14T00:31:07;4.75;;;1.48;;
53775;SDS011;44276;49.534;6.378;2024-02-14T00:33:35;9.38;;;2.22;;
53775;SDS011;44276;49.534;6.378;2024-02-14T00:36:04;4.18;;;1.63;;
53775;SDS011;44276;49.534;6.378;2024-02-14T00:38:34;5.72;;;1.85;;
53775;SDS011;44276;49.534;6.378;2024-02-14T00:41:03;3.08;;;1.35;;
53775;SDS011;44276;49.534;6.378;2024-02-14T00:43:32;4.70;;;1.33;;
53775;SDS011;44276;49.534;6.378;2024-02-14T00:46:00;7.47;;;1.30;;
53775;SDS011;44276;49.534;6.378;2024-02-14T00:48:28;5.05;;;1.20;;
53775;SDS011;44276;49.534;6.378;2024-02-14T00:50:56;4.03;;;1.50;;
53775;SDS011;44276;49.534;6.378;2024-02-14T00:53:25;3.53;;;1.30;;
53775;SDS011;44276;49.534;6.378;2024-02-14T00:55:53;7.38;;;3.15;;
53775;SDS011;44276;49.534;6.378;2024-02-14T00:58:23;6.65;;;1.50;;
53775;SDS011;44276;49.534;6.378;2024-02-14T01:00:52;5.57;;;1.58;;
53775;SDS011;44276;49.534;6.378;2024-02-14T01:03:20;5.15;;;1.77;;
53775;SDS011;44276;49.534;6.378;2024-02-14T01:05:48;2.35;;;1.40;;
53775;SDS011;44276;49.534;6.378;2024-02-14T01:08:17;9.93;;;1.52;;
53775;SDS011;44276;49.534;6.378;2024-02-14T01:10:45;3.67;;;1.10;;
53775;SDS011;44276;49.534;6.378;2024-02-14T01:13:16;2.83;;;1.58;;
53775;SDS011;44276;49.534;6.378;2024-02-14T01:15:46;4.40;;;1.77;;
53775;SDS011;44276;49.534;6.378;2024-02-14T01:18:14;2.35;;;1.00;;
53775;SDS011;44276;49.534;6.378;2024-02-14T01:20:42;2.50;;;1.13;;
53775;SDS011;44276;49.534;6.378;2024-02-14T01:23:10;4.75;;;1.65;;
53775;SDS011;44276;49.534;6.378;2024-02-14T01:25:39;1.65;;;1.10;;
53775;SDS011;44276;49.534;6.378;2024-02-14T01:28:08;4.05;;;1.73;;
53775;SDS011;44276;49.534;6.378;2024-02-14T01:30:36;4.05;;;1.60;;
53775;SDS011;44276;49.534;6.378;2024-02-14T01:33:06;5.32;;;1.30;;
53775;SDS011;44276;49.534;6.378;2024-02-14T01:35:34;3.90;;;1.20;;
53775;SDS011;44276;49.534;6.378;2024-02-14T01:38:02;4.90;;;1.75;;
53775;SDS011;44276;49.534;6.378;2024-02-14T01:40:32;3.28;;;2.25;;
53775;SDS011;44276;49.534;6.378;2024-02-14T01:43:00;2.72;;;1.67;;
53775;SDS011;44276;49.534;6.378;2024-02-14T01:45:27;3.92;;;1.15;;
53775;SDS011;44276;49.534;6.378;2024-02-14T01:47:56;9.38;;;1.00;;
53775;SDS011;44276;49.534;6.378;2024-02-14T01:50:25;9.48;;;1.42;;
53775;SDS011;44276;49.534;6.378;2024-02-14T01:52:56;7.22;;;2.70;;
53775;SDS011;44276;49.534;6.378;2024-02-14T01:55:27;3.72;;;1.08;;
53775;SDS011;44276;49.534;6.378;2024-02-14T01:57:56;3.42;;;1.83;;
53775;SDS011;44276;49.534;6.378;2024-02-14T02:00:25;2.30;;;1.05;;
53775;SDS011;44276;49.534;6.378;2024-02-14T02:02:53;4.57;;;1.17;;
53775;SDS011;44276;49.534;6.378;2024-02-14T02:05:22;3.42;;;1.52;;
53775;SDS011;44276;49.534;6.378;2024-02-14T02:07:52;4.80;;;0.80;;
53775;SDS011;44276;49.534;6.378;2024-02-14T02:10:20;4.72;;;1.63;;
53775;SDS011;44276;49.534;6.378;2024-02-14T02:12:57;5.25;;;1.30;;
53775;SDS011;44276;49.534;6.378;2024-02-14T02:15:26;5.03;;;1.60;;
53775;SDS011;44276;49.534;6.378;2024-02-14T02:17:55;4.88;;;1.48;;
53775;SDS011;44276;49.534;6.378;2024-02-14T02:20:26;2.25;;;1.10;;
53775;SDS011;44276;49.534;6.378;2024-02-14T02:22:56;4.28;;;1.35;;
53775;SDS011;44276;49.534;6.378;2024-02-14T02:25:24;4.47;;;1.48;;
53775;SDS011;44276;49.534;6.378;2024-02-14T02:27:53;5.05;;;1.55;;
53775;SDS011;44276;49.534;6.378;2024-02-14T02:30:23;2.22;;;1.30;;
53775;SDS011;44276;49.534;6.378;2024-02-14T02:32:51;7.88;;;2.08;;
53775;SDS011;44276;49.534;6.378;2024-02-14T02:35:20;7.25;;;1.25;;
53775;SDS011;44276;49.534;6.378;2024-02-14T02:37:49;4.07;;;1.52;;
53775;SDS011;44276;49.534;6.378;2024-02-14T02:40:19;6.93;;;1.27;;
53775;SDS011;44276;49.534;6.378;2024-02-14T02:42:48;5.38;;;2.08;;
53775;SDS011;44276;49.534;6.378;2024-02-14T02:45:16;3.25;;;1.00;;
53775;SDS011;44276;49.534;6.378;2024-02-14T02:47:45;5.20;;;1.90;;
53775;SDS011;44276;49.534;6.378;2024-02-14T02:50:14;4.43;;;1.52;;
53775;SDS011;44276;49.534;6.378;2024-02-14T02:52:42;6.50;;;1.40;;
53775;SDS011;44276;49.534;6.378;2024-02-14T02:55:11;1.67;;;1.08;;
53775;SDS011;44276;49.534;6.378;2024-02-14T02:57:41;7.40;;;2.03;;
53775;SDS011;44276;49.534;6.378;2024-02-14T03:00:12;3.67;;;1.08;;
53775;SDS011;44276;49.534;6.378;2024-02-14T03:02:42;4.47;;;1.27;;
53775;SDS011;44276;49.534;6.378;2024-02-14T03:05:11;2.72;;;1.27;;
53775;SDS011;44276;49.534;6.378;2024-02-14T03:07:45;1.75;;;0.95;;
53775;SDS011;44276;49.534;6.378;2024-02-14T03:10:16;7.68;;;2.30;;
53775;SDS011;44276;49.534;6.378;2024-02-14T03:12:47;3.92;;;1.65;;
53775;SDS011;44276;49.534;6.378;2024-02-14T03:15:15;3.35;;;1.52;;
53775;SDS011;44276;49.534;6.378;2024-02-14T03:17:45;2.15;;;0.73;;
53775;SDS011;44276;49.534;6.378;2024-02-14T03:20:13;1.92;;;0.93;;
53775;SDS011;44276;49.534;6.378;2024-02-14T03:22:44;5.80;;;0.93;;
53775;SDS011;44276;49.534;6.378;2024-02-14T03:25:15;4.45;;;1.17;;
53775;SDS011;44276;49.534;6.378;2024-02-14T03:27:47;5.40;;;1.92;;
53775;SDS011;44276;49.534;6.378;2024-02-14T03:30:19;3.97;;;0.98;;
53775;SDS011;44276;49.534;6.378;2024-02-14T03:32:49;6.60;;;1.23;;
53775;SDS011;44276;49.534;6.378;2024-02-14T03:35:19;4.68;;;1.20;;
53775;SDS011;44276;49.534;6.378;2024-02-14T03:37:48;2.40;;;0.73;;
53775;SDS011;44276;49.534;6.378;2024-02-14T03:40:19;5.07;;;1.20;;
53775;SDS011;44276;49.534;6.378;2024-02-14T03:42:50;3.22;;;1.00;;
53775;SDS011;44276;49.534;6.378;2024-02-14T03:45:18;1.80;;;0.80;;
53775;SDS011;44276;49.534;6.378;2024-02-14T03:47:47;3.78;;;0.90;;
53775;SDS011;44276;49.534;6.378;2024-02-14T03:50:15;1.90;;;1.00;;
53775;SDS011;44276;49.534;6.378;2024-02-14T03:52:43;2.35;;;1.20;;
53775;SDS011;44276;49.534;6.378;2024-02-14T03:55:12;3.28;;;1.50;;
53775;SDS011;44276;49.534;6.378;2024-02-14T03:57:42;3.10;;;0.88;;
53775;SDS011;44276;49.534;6.378;2024-02-14T04:00:13;3.85;;;0.90;;
53775;SDS011;44276;49.534;6.378;2024-02-14T04:02:43;3.65;;;1.60;;
53775;SDS011;44276;49.534;6.378;2024-02-14T04:05:11;6.68;;;1.42;;
53775;SDS011;44276;49.534;6.378;2024-02-14T04:07:39;3.63;;;1.10;;
53775;SDS011;44276;49.534;6.378;2024-02-14T04:10:10;3.97;;;0.70;;
53775;SDS011;44276;49.534;6.378;2024-02-14T04:12:40;2.35;;;1.13;;
53775;SDS011;44276;49.534;6.378;2024-02-14T04:15:08;6.70;;;1.67;;
53775;SDS011;44276;49.534;6.378;2024-02-14T04:17:38;4.38;;;1.83;;
53775;SDS011;44276;49.534;6.378;2024-02-14T04:20:07;8.50;;;1.40;;
53775;SDS011;44276;49.534;6.378;2024-02-14T04:22:36;4.57;;;1.17;;
53775;SDS011;44276;49.534;6.378;2024-02-14T04:25:05;3.85;;;1.95;;
53775;SDS011;44276;49.534;6.378;2024-02-14T04:27:35;8.20;;;1.38;;
53775;SDS011;44276;49.534;6.378;2024-02-14T04:30:04;5.22;;;1.33;;
53775;SDS011;44276;49.534;6.378;2024-02-14T04:32:34;2.40;;;1.00;;
53775;SDS011;44276;49.534;6.378;2024-02-14T04:35:04;3.33;;;1.60;;
53775;SDS011;44276;49.534;6.378;2024-02-14T04:37:32;2.67;;;1.42;;
53775;SDS011;44276;49.534;6.378;2024-02-14T04:40:00;2.10;;;1.08;;
53775;SDS011;44276;49.534;6.378;2024-02-14T04:42:30;6.35;;;1.60;;
53775;SDS011;44276;49.534;6.378;2024-02-14T04:44:58;2.28;;;1.58;;
53775;SDS011;44276;49.534;6.378;2024-02-14T04:47:27;12.23;;;1.65;;
53775;SDS011;44276;49.534;6.378;2024-02-14T04:49:56;4.80;;;2.00;;
53775;SDS011;44276;49.534;6.378;2024-02-14T04:52:26;3.92;;;1.42;;
53775;SDS011;44276;49.534;6.378;2024-02-14T04:54:54;4.72;;;1.48;;
53775;SDS011;44276;49.534;6.378;2024-02-14T04:57:23;5.88;;;1.48;;
53775;SDS011;44276;49.534;6.378;2024-02-14T04:59:51;7.45;;;3.08;;
53775;SDS011;44276;49.534;6.378;2024-02-14T05:02:20;4.28;;;1.98;;
53775;SDS011;44276;49.534;6.378;2024-02-14T05:04:48;4.82;;;1.77;;
53775;SDS011;44276;49.534;6.378;2024-02-14T05:07:16;5.88;;;1.63;;
53775;SDS011;44276;49.534;6.378;2024-02-14T05:09:46;5.63;;;1.63;;
53775;SDS011;44276;49.534;6.378;2024-02-14T05:12:16;4.18;;;1.63;;
53775;SDS011;44276;49.534;6.378;2024-02-14T05:14:46;2.95;;;1.63;;
53775;SDS011;44276;49.534;6.378;2024-02-14T05:17:15;3.85;;;1.70;;
53775;SDS011;44276;49.534;6.378;2024-02-14T05:19:43;6.32;;;2.45;;
53775;SDS011;44276;49.534;6.378;2024-02-14T05:22:12;6.20;;;1.80;;
53775;SDS011;44276;49.534;6.378;2024-02-14T05:24:40;7.25;;;2.40;;
53775;SDS011;44276;49.534;6.378;2024-02-14T05:27:09;8.75;;;2.03;;
53775;SDS011;44276;49.534;6.378;2024-02-14T05:29:38;6.75;;;2.03;;
53775;SDS011;44276;49.534;6.378;2024-02-14T05:32:06;9.75;;;2.75;;
53775;SDS011;44276;49.534;6.378;2024-02-14T05:34:35;3.88;;;1.35;;
53775;SDS011;44276;49.534;6.378;2024-02-14T05:37:04;9.43;;;2.40;;
53775;SDS011;44276;49.534;6.378;2024-02-14T05:39:33;8.27;;;2.30;;
53775;SDS011;44276;49.534;6.378;2024-02-14T05:42:01;2.83;;;2.00;;
53775;SDS011;44276;49.534;6.378;2024-02-14T05:44:32;4.65;;;2.17;;
53775;SDS011;44276;49.534;6.378;2024-02-14T05:47:01;6.38;;;1.92;;
53775;SDS011;44276;49.534;6.378;2024-02-14T05:49:29;5.35;;;1.77;;
53775;SDS011;44276;49.534;6.378;2024-02-14T05:51:58;2.85;;;1.33;;
53775;SDS011;44276;49.534;6.378;2024-02-14T05:54:26;3.85;;;2.38;;
53775;SDS011;44276;49.534;6.378;2024-02-14T05:56:54;3.85;;;1.95;;
53775;SDS011;44276;49.534;6.378;2024-02-14T05:59:24;3.65;;;1.73;;
53775;SDS011;44276;49.534;6.378;2024-02-14T06:01:53;4.00;;;1.80;;
53775;SDS011;44276;49.534;6.378;2024-02-14T06:04:22;4.82;;;1.67;;
53775;SDS011;44276;49.534;6.378;2024-02-14T06:06:50;3.55;;;2.15;;
53775;SDS011;44276;49.534;6.378;2024-02-14T06:09:18;3.72;;;1.60;;
53775;SDS011;44276;49.534;6.378;2024-02-14T06:11:46;6.35;;;1.65;;
53775;SDS011;44276;49.534;6.378;2024-02-14T06:14:14;5.45;;;2.35;;
53775;SDS011;44276;49.534;6.378;2024-02-14T06:16:43;5.95;;;2.08;;
53775;SDS011;44276;49.534;6.378;2024-02-14T06:19:12;5.03;;;1.48;;
53775;SDS011;44276;49.534;6.378;2024-02-14T06:21:41;5.00;;;2.00;;
53775;SDS011;44276;49.534;6.378;2024-02-14T06:24:09;4.78;;;2.65;;
53775;SDS011;44276;49.534;6.378;2024-02-14T06:26:39;4.22;;;2.10;;
53775;SDS011;44276;49.534;6.378;2024-02-14T06:29:08;4.45;;;2.17;;
53775;SDS011;44276;49.534;6.378;2024-02-14T06:31:36;9.30;;;3.05;;
53775;SDS011;44276;49.534;6.378;2024-02-14T06:34:04;10.60;;;3.60;;
53775;SDS011;44276;49.534;6.378;2024-02-14T06:36:35;6.55;;;2.95;;
53775;SDS011;44276;49.534;6.378;2024-02-14T06:39:04;4.90;;;3.00;;
53775;SDS011;44276;49.534;6.378;2024-02-14T06:41:35;7.22;;;2.90;;
53775;SDS011;44276;49.534;6.378;2024-02-14T06:44:03;7.28;;;2.88;;
53775;SDS011;44276;49.534;6.378;2024-02-14T06:46:32;5.70;;;3.13;;
53775;SDS011;44276;49.534;6.378;2024-02-14T06:49:02;7.03;;;2.17;;
53775;SDS011;44276;49.534;6.378;2024-02-14T06:51:30;5.35;;;3.47;;
53775;SDS011;44276;49.534;6.378;2024-02-14T06:54:00;4.32;;;2.67;;
53775;SDS011;44276;49.534;6.378;2024-02-14T06:56:29;8.38;;;3.97;;
53775;SDS011;44276;49.534;6.378;2024-02-14T06:58:58;6.38;;;3.35;;
53775;SDS011;44276;49.534;6.378;2024-02-14T07:01:26;4.38;;;2.70;;
53775;SDS011;44276;49.534;6.378;2024-02-14T07:03:55;4.90;;;2.60;;
53775;SDS011;44276;49.534;6.378;2024-02-14T07:06:23;6.47;;;3.75;;
53775;SDS011;44276;49.534;6.378;2024-02-14T07:08:52;9.50;;;4.20;;
53775;SDS011;44276;49.534;6.378;2024-02-14T07:11:22;6.97;;;3.55;;
53775;SDS011;44276;49.534;6.378;2024-02-14T07:13:50;12.32;;;4.60;;
53775;SDS011;44276;49.534;6.378;2024-02-14T07:16:18;12.07;;;4.57;;
53775;SDS011;44276;49.534;6.378;2024-02-14T07:18:46;11.68;;;4.00;;
53775;SDS011;44276;49.534;6.378;2024-02-14T07:21:15;10.82;;;4.35;;
53775;SDS011;44276;49.534;6.378;2024-02-14T07:23:44;12.88;;;4.28;;
53775;SDS011;44276;49.534;6.378;2024-02-14T07:26:13;9.10;;;4.43;;
53775;SDS011;44276;49.534;6.378;2024-02-14T07:28:43;12.60;;;5.25;;
53775;SDS011;44276;49.534;6.378;2024-02-14T07:31:11;10.27;;;4.80;;
53775;SDS011;44276;49.534;6.378;2024-02-14T07:33:39;10.23;;;5.35;;
53775;SDS011;44276;49.534;6.378;2024-02-14T07:36:09;7.18;;;4.65;;
53775;SDS011;44276;49.534;6.378;2024-02-14T07:38:38;10.88;;;4.93;;
53775;SDS011;44276;49.534;6.378;2024-02-14T07:41:09;11.95;;;4.18;;
53775;SDS011;44276;49.534;6.378;2024-02-14T07:43:37;8.75;;;5.07;;
53775;SDS011;44276;49.534;6.378;2024-02-14T07:46:06;9.18;;;4.63;;
53775;SDS011;44276;49.534;6.378;2024-02-14T07:48:34;8.27;;;5.53;;
53775;SDS011;44276;49.534;6.378;2024-02-14T07:51:06;20.27;;;5.10;;
53775;SDS011;44276;49.534;6.378;2024-02-14T07:53:35;8.75;;;5.15;;
53775;SDS011;44276;49.534;6.378;2024-02-14T07:56:03;5.90;;;4.25;;
53775;SDS011;44276;49.534;6.378;2024-02-14T07:58:32;8.30;;;5.55;;
53775;SDS011;44276;49.534;6.378;2024-02-14T08:01:00;10.13;;;4.45;;
53775;SDS011;44276;49.534;6.378;2024-02-14T08:03:31;8.45;;;4.68;;
53775;SDS011;44276;49.534;6.378;2024-02-14T08:06:00;8.25;;;4.65;;
53775;SDS011;44276;49.534;6.378;2024-02-14T08:08:28;5.78;;;3.53;;
53775;SDS011;44276;49.534;6.378;2024-02-14T08:10:57;12.77;;;4.25;;
53775;SDS011;44276;49.534;6.378;2024-02-14T08:13:25;6.28;;;4.38;;
53775;SDS011;44276;49.534;6.378;2024-02-14T08:15:53;10.15;;;4.95;;
53775;SDS011;44276;49.534;6.378;2024-02-14T08:18:21;7.85;;;3.88;;
53775;SDS011;44276;49.534;6.378;2024-02-14T08:20:51;8.18;;;3.88;;
53775;SDS011;44276;49.534;6.378;2024-02-14T08:23:19;5.80;;;3.53;;
53775;SDS011;44276;49.534;6.378;2024-02-14T08:25:47;8.65;;;3.50;;
53775;SDS011;44276;49.534;6.378;2024-02-14T08:28:16;10.93;;;3.95;;
53775;SDS011;44276;49.534;6.378;2024-02-14T08:30:44;6.07;;;3.53;;
53775;SDS011;44276;49.534;6.378;2024-02-14T08:33:13;5.05;;;3.50;;
53775;SDS011;44276;49.534;6.378;2024-02-14T08:35:42;7.53;;;2.95;;
53775;SDS011;44276;49.534;6.378;2024-02-14T08:38:12;4.38;;;3.20;;
53775;SDS011;44276;49.534;6.378;2024-02-14T08:40:40;11.57;;;4.18;;
53775;SDS011;44276;49.534;6.378;2024-02-14T08:43:08;6.07;;;3.60;;
53775;SDS011;44276;49.534;6.378;2024-02-14T08:45:37;5.72;;;3.88;;
53775;SDS011;44276;49.534;6.378;2024-02-14T08:48:06;7.10;;;3.90;;
53775;SDS011;44276;49.534;6.378;2024-02-14T08:50:35;7.63;;;4.80;;
53775;SDS011;44276;49.534;6.378;2024-02-14T08:53:03;7.95;;;4.82;;
53775;SDS011;44276;49.534;6.378;2024-02-14T08:55:33;8.27;;;4.10;;
53775;SDS011;44276;49.534;6.378;2024-02-14T08:58:02;5.68;;;3.72;;
53775;SDS011;44276;49.534;6.378;2024-02-14T09:00:31;6.50;;;3.50;;
53775;SDS011;44276;49.534;6.378;2024-02-14T09:03:02;11.85;;;3.70;;
53775;SDS011;44276;49.534;6.378;2024-02-14T09:05:31;6.40;;;3.95;;
53775;SDS011;44276;49.534;6.378;2024-02-14T09:08:01;7.47;;;4.75;;
53775;SDS011;44276;49.534;6.378;2024-02-14T09:10:29;6.60;;;3.47;;
53775;SDS011;44276;49.534;6.378;2024-02-14T09:12:58;8.32;;;3.53;;
53775;SDS011;44276;49.534;6.378;2024-02-14T09:15:28;10.05;;;3.88;;
53775;SDS011;44276;49.534;6.378;2024-02-14T09:17:57;6.68;;;3.50;;
53775;SDS011;44276;49.534;6.378;2024-02-14T09:20:26;10.15;;;4.22;;
53775;SDS011;44276;49.534;6.378;2024-02-14T09:22:55;6.30;;;4.05;;
53775;SDS011;44276;49.534;6.378;2024-02-14T09:25:24;6.50;;;4.25;;
53775;SDS011;44276;49.534;6.378;2024-02-14T09:27:52;6.07;;;3.58;;
53775;SDS011;44276;49.534;6.378;2024-02-14T09:30:22;10.48;;;4.07;;
53775;SDS011;44276;49.534;6.378;2024-02-14T09:33:03;8.75;;;3.30;;
53775;SDS011;44276;49.534;6.378;2024-02-14T09:35:32;3.33;;;2.50;;
53775;SDS011;44276;49.534;6.378;2024-02-14T09:38:01;9.25;;;3.97;;
53775;SDS011;44276;49.534;6.378;2024-02-14T09:40:30;6.53;;;3.88;;
53775;SDS011;44276;49.534;6.378;2024-02-14T09:42:58;4.70;;;2.88;;
53775;SDS011;44276;49.534;6.378;2024-02-14T09:45:34;6.25;;;3.42;;
53775;SDS011;44276;49.534;6.378;2024-02-14T09:48:04;4.80;;;2.85;;
53775;SDS011;44276;49.534;6.378;2024-02-14T09:50:35;3.60;;;2.88;;
53775;SDS011;44276;49.534;6.378;2024-02-14T09:53:04;5.55;;;3.03;;
53775;SDS011;44276;49.534;6.378;2024-02-14T09:55:36;4.07;;;2.28;;
53775;SDS011;44276;49.534;6.378;2024-02-14T09:58:06;8.48;;;3.13;;
53775;SDS011;44276;49.534;6.378;2024-02-14T10:00:35;4.47;;;2.25;;
53775;SDS011;44276;49.534;6.378;2024-02-14T10:03:04;3.15;;;1.58;;
53775;SDS011;44276;49.534;6.378;2024-02-14T10:05:34;6.03;;;2.15;;
53775;SDS011;44276;49.534;6.378;2024-02-14T10:08:03;2.40;;;1.77;;
53775;SDS011;44276;49.534;6.378;2024-02-14T10:10:32;2.75;;;1.52;;
53775;SDS011;44276;49.534;6.378;2024-02-14T10:13:03;9.25;;;1.85;;
53775;SDS011;44276;49.534;6.378;2024-02-14T10:15:32;2.83;;;1.80;;
53775;SDS011;44276;49.534;6.378;2024-02-14T10:18:02;2.42;;;1.48;;
53775;SDS011;44276;49.534;6.378;2024-02-14T10:20:31;2.92;;;1.67;;
53775;SDS011;44276;49.534;6.378;2024-02-14T10:23:01;1.98;;;1.40;;
53775;SDS011;44276;49.534;6.378;2024-02-14T10:25:30;2.72;;;1.52;;
53775;SDS011;44276;49.534;6.378;2024-02-14T10:28:03;5.55;;;2.17;;
53775;SDS011;44276;49.534;6.378;2024-02-14T10:30:35;1.83;;;1.27;;
53775;SDS011;44276;49.534;6.378;2024-02-14T10:33:06;2.25;;;1.63;;
53775;SDS011;44276;49.534;6.378;2024-02-14T10:35:49;3.92;;;1.50;;
53775;SDS011;44276;49.534;6.378;2024-02-14T10:38:26;5.88;;;2.42;;
53775;SDS011;44276;49.534;6.378;2024-02-14T10:40:58;2.08;;;1.30;;
53775;SDS011;44276;49.534;6.378;2024-02-14T10:43:27;2.05;;;1.42;;
53775;SDS011;44276;49.534;6.378;2024-02-14T10:45:56;3.00;;;1.67;;
53775;SDS011;44276;49.534;6.378;2024-02-14T10:48:29;2.70;;;1.90;;
53775;SDS011;44276;49.534;6.378;2024-02-14T10:51:02;3.15;;;1.58;;
53775;SDS011;44276;49.534;6.378;2024-02-14T10:53:36;2.72;;;1.58;;
53775;SDS011;44276;49.534;6.378;2024-02-14T10:56:12;2.58;;;1.83;;
53775;SDS011;44276;49.534;6.378;2024-02-14T10:58:46;4.28;;;1.70;;
53775;SDS011;44276;49.534;6.378;2024-02-14T11:01:16;8.02;;;1.73;;
53775;SDS011;44276;49.534;6.378;2024-02-14T11:03:48;2.92;;;2.13;;
53775;SDS011;44276;49.534;6.378;2024-02-14T11:06:17;2.97;;;1.83;;
53775;SDS011;44276;49.534;6.378;2024-02-14T11:08:55;1.75;;;1.48;;
53775;SDS011;44276;49.534;6.378;2024-02-14T11:11:25;1.63;;;1.42;;
53775;SDS011;44276;49.534;6.378;2024-02-14T11:13:57;2.13;;;1.20;;
53775;SDS011;44276;49.534;6.378;2024-02-14T11:16:25;3.83;;;1.15;;
53775;SDS011;44276;49.534;6.378;2024-02-14T11:19:06;4.10;;;2.00;;
53775;SDS011;44276;49.534;6.378;2024-02-14T11:21:37;7.28;;;1.38;;
53775;SDS011;44276;49.534;6.378;2024-02-14T11:24:10;3.58;;;1.38;;
53775;SDS011;44276;49.534;6.378;2024-02-14T11:26:45;2.30;;;1.15;;
53775;SDS011;44276;49.534;6.378;2024-02-14T11:29:15;4.22;;;1.77;;
53775;SDS011;44276;49.534;6.378;2024-02-14T11:31:57;3.00;;;1.20;;
53775;SDS011;44276;49.534;6.378;2024-02-14T11:34:28;1.30;;;0.93;;
53775;SDS011;44276;49.534;6.378;2024-02-14T11:37:03;3.88;;;1.35;;
53775;SDS011;44276;49.534;6.378;2024-02-14T11:39:33;3.45;;;1.42;;
53775;SDS011;44276;49.534;6.378;2024-02-14T11:42:01;3.50;;;1.40;;
53775;SDS011;44276;49.534;6.378;2024-02-14T11:44:29;1.95;;;1.33;;
53775;SDS011;44276;49.534;6.378;2024-02-14T11:46:59;2.90;;;1.08;;
53775;SDS011;44276;49.534;6.378;2024-02-14T11:49:29;2.33;;;0.75;;
53775;SDS011;44276;49.534;6.378;2024-02-14T11:51:57;1.52;;;1.17;;
53775;SDS011;44276;49.534;6.378;2024-02-14T11:54:25;1.33;;;0.80;;
53775;SDS011;44276;49.534;6.378;2024-02-14T11:56:54;1.58;;;1.08;;
53775;SDS011;44276;49.534;6.378;2024-02-14T11:59:22;3.70;;;1.88;;
53775;SDS011;44276;49.534;6.378;2024-02-14T12:01:50;3.17;;;0.80;;
53775;SDS011;44276;49.534;6.378;2024-02-14T12:04:21;1.80;;;0.68;;
53775;SDS011;44276;49.534;6.378;2024-02-14T12:06:51;0.93;;;0.43;;
53775;SDS011;44276;49.534;6.378;2024-02-14T12:09:19;0.90;;;0.30;;
53775;SDS011;44276;49.534;6.378;2024-02-14T12:11:48;1.35;;;0.57;;
53775;SDS011;44276;49.534;6.378;2024-02-14T12:14:16;1.10;;;0.45;;
53775;SDS011;44276;49.534;6.378;2024-02-14T12:16:50;0.47;;;0.30;;
53775;SDS011;44276;49.534;6.378;2024-02-14T12:19:23;0.65;;;0.50;;
53775;SDS011;44276;49.534;6.378;2024-02-14T12:21:59;1.90;;;0.90;;
53775;SDS011;44276;49.534;6.378;2024-02-14T12:24:28;0.80;;;0.77;;
53775;SDS011;44276;49.534;6.378;2024-02-14T12:26:56;1.52;;;0.50;;
53775;SDS011;44276;49.534;6.378;2024-02-14T12:29:24;2.65;;;0.50;;
53775;SDS011;44276;49.534;6.378;2024-02-14T12:32:02;1.35;;;0.90;;
53775;SDS011;44276;49.534;6.378;2024-02-14T12:34:32;0.93;;;0.70;;
53775;SDS011;44276;49.534;6.378;2024-02-14T12:37:03;2.35;;;0.90;;
53775;SDS011;44276;49.534;6.378;2024-02-14T12:39:34;5.78;;;1.00;;
53775;SDS011;44276;49.534;6.378;2024-02-14T12:42:05;0.95;;;0.60;;
53775;SDS011;44276;49.534;6.378;2024-02-14T12:44:33;2.55;;;0.95;;
53775;SDS011;44276;49.534;6.378;2024-02-14T12:47:01;0.93;;;0.47;;
53775;SDS011;44276;49.534;6.378;2024-02-14T12:49:30;2.20;;;1.10;;
53775;SDS011;44276;49.534;6.378;2024-02-14T12:51:59;0.82;;;0.70;;
53775;SDS011;44276;49.534;6.378;2024-02-14T12:54:29;1.58;;;0.75;;
53775;SDS011;44276;49.534;6.378;2024-02-14T12:56:57;0.98;;;0.75;;
53775;SDS011;44276;49.534;6.378;2024-02-14T12:59:25;0.90;;;0.80;;
53775;SDS011;44276;49.534;6.378;2024-02-14T13:01:54;1.20;;;0.88;;
53775;SDS011;44276;49.534;6.378;2024-02-14T13:04:22;2.88;;;0.68;;
53775;SDS011;44276;49.534;6.378;2024-02-14T13:06:50;0.82;;;0.60;;
53775;SDS011;44276;49.534;6.378;2024-02-14T13:09:19;1.25;;;0.70;;
53775;SDS011;44276;49.534;6.378;2024-02-14T13:11:49;4.25;;;1.10;;
53775;SDS011;44276;49.534;6.378;2024-02-14T13:14:18;4.15;;;1.35;;
53775;SDS011;44276;49.534;6.378;2024-02-14T13:16:46;1.08;;;0.93;;
53775;SDS011;44276;49.534;6.378;2024-02-14T13:19:14;2.13;;;0.98;;
53775;SDS011;44276;49.534;6.378;2024-02-14T13:21:45;1.48;;;0.80;;
53775;SDS011;44276;49.534;6.378;2024-02-14T13:24:14;2.00;;;0.90;;
53775;SDS011;44276;49.534;6.378;2024-02-14T13:26:43;2.25;;;1.27;;
53775;SDS011;44276;49.534;6.378;2024-02-14T13:29:13;3.10;;;1.20;;
53775;SDS011;44276;49.534;6.378;2024-02-14T13:31:43;2.33;;;0.80;;
53775;SDS011;44276;49.534;6.378;2024-02-14T13:34:11;1.95;;;0.95;;
53775;SDS011;44276;49.534;6.378;2024-02-14T13:36:41;2.75;;;1.02;;
53775;SDS011;44276;49.534;6.378;2024-02-14T13:39:09;1.23;;;1.10;;
53775;SDS011;44276;49.534;6.378;2024-02-14T13:41:38;3.25;;;2.03;;
53775;SDS011;44276;49.534;6.378;2024-02-14T13:44:10;2.83;;;0.65;;
53775;SDS011;44276;49.534;6.378;2024-02-14T13:46:40;2.42;;;0.90;;
53775;SDS011;44276;49.534;6.378;2024-02-14T13:49:12;1.38;;;0.55;;
53775;SDS011;44276;49.534;6.378;2024-02-14T13:51:45;2.63;;;1.35;;
53775;SDS011;44276;49.534;6.378;2024-02-14T13:54:13;3.03;;;1.40;;
53775;SDS011;44276;49.534;6.378;2024-02-14T13:56:41;2.67;;;1.08;;
53775;SDS011;44276;49.534;6.378;2024-02-14T13:59:10;0.88;;;0.55;;
53775;SDS011;44276;49.534;6.378;2024-02-14T14:01:39;1.00;;;0.60;;
53775;SDS011;44276;49.534;6.378;2024-02-14T14:04:08;1.13;;;0.68;;
53775;SDS011;44276;49.534;6.378;2024-02-14T14:06:36;2.65;;;0.68;;
53775;SDS011;44276;49.534;6.378;2024-02-14T14:09:05;1.17;;;0.63;;
53775;SDS011;44276;49.534;6.378;2024-02-14T14:11:36;0.90;;;0.60;;
53775;SDS011;44276;49.534;6.378;2024-02-14T14:14:05;9.77;;;0.95;;
53775;SDS011;44276;49.534;6.378;2024-02-14T14:16:34;3.40;;;0.50;;
53775;SDS011;44276;49.534;6.378;2024-02-14T14:19:04;1.90;;;0.35;;
53775;SDS011;44276;49.534;6.378;2024-02-14T14:21:32;1.02;;;0.30;;
53775;SDS011;44276;49.534;6.378;2024-02-14T14:24:00;0.35;;;0.25;;
53775;SDS011;44276;49.534;6.378;2024-02-14T14:26:28;0.57;;;0.30;;
53775;SDS011;44276;49.534;6.378;2024-02-14T14:28:56;0.30;;;0.30;;
53775;SDS011;44276;49.534;6.378;2024-02-14T14:31:24;1.73;;;0.68;;
53775;SDS011;44276;49.534;6.378;2024-02-14T14:33:56;1.08;;;0.30;;
53775;SDS011;44276;49.534;6.378;2024-02-14T14:36:26;0.55;;;0.50;;
53775;SDS011;44276;49.534;6.378;2024-02-14T14:38:54;0.85;;;0.50;;
53775;SDS011;44276;49.534;6.378;2024-02-14T14:41:22;0.77;;;0.40;;
53775;SDS011;44276;49.534;6.378;2024-02-14T14:43:50;0.57;;;0.40;;
53775;SDS011;44276;49.534;6.378;2024-02-14T14:46:18;3.47;;;0.70;;
53775;SDS011;44276;49.534;6.378;2024-02-14T14:48:46;2.28;;;0.85;;
53775;SDS011;44276;49.534;6.378;2024-02-14T14:51:15;1.50;;;0.80;;
53775;SDS011;44276;49.534;6.378;2024-02-14T14:53:45;0.40;;;0.30;;
53775;SDS011;44276;49.534;6.378;2024-02-14T14:56:14;2.35;;;0.60;;
53775;SDS011;44276;49.534;6.378;2024-02-14T14:58:42;3.47;;;0.50;;
53775;SDS011;44276;49.534;6.378;2024-02-14T15:01:10;0.95;;;0.43;;